createdAt,value
2018-09-18T00:02:08.543Z,49.75
2018-09-18T00:04:36.729Z,49.97
2018-09-18T00:07:04.915Z,50.06
2018-09-18T00:09:33.111Z,49.94
2018-09-18T00:12:01.281Z,49.91
2018-09-18T00:14:29.471Z,49.30
2018-09-18T00:16:57.818Z,49.44
2018-09-18T00:19:26.011Z,49.89
2018-09-18T00:21:54.183Z,49.81
2018-09-18T00:24:22.562Z,49.24
2018-09-18T00:26:50.734Z,49.18
2018-09-18T00:29:18.913Z,49.30
2018-09-18T00:31:47.085Z,49.58
2018-09-18T00:34:15.279Z,48.65
2018-09-18T00:36:43.467Z,48.85
2018-09-18T00:39:11.669Z,48.69
2018-09-18T00:41:39.851Z,48.55
2018-09-18T00:44:08.043Z,49.10
2018-09-18T00:46:36.228Z,48.97
2018-09-18T00:49:04.390Z,49.02
2018-09-18T00:51:32.579Z,49.16
2018-09-18T00:54:00.752Z,48.82
2018-09-18T00:56:28.925Z,48.77
2018-09-18T00:58:57.096Z,48.75
2018-09-18T01:01:25.287Z,49.28
2018-09-18T01:03:53.459Z,48.59
2018-09-18T01:06:21.643Z,48.26
2018-09-18T01:08:49.928Z,48.77
2018-09-18T01:11:18.107Z,48.38
2018-09-18T01:13:46.619Z,48.40
2018-09-18T01:16:14.803Z,48.82
2018-09-18T01:18:43.316Z,48.82
2018-09-18T01:21:12.095Z,49.35
2018-09-18T01:23:40.292Z,49.26
2018-09-18T01:26:08.656Z,49.59
2018-09-18T01:28:37.438Z,49.61
2018-09-18T01:31:05.914Z,49.33
2018-09-18T01:33:34.409Z,49.33
2018-09-18T01:36:02.584Z,50.04
2018-09-18T01:38:30.922Z,49.67
2018-09-18T01:40:59.120Z,49.59
2018-09-18T01:43:27.296Z,49.90
2018-09-18T01:45:55.476Z,50.26
2018-09-18T01:48:23.668Z,49.86
2018-09-18T01:50:51.876Z,49.84
2018-09-18T01:53:20.047Z,49.85
2018-09-18T01:55:48.236Z,50.23
2018-09-18T01:58:16.411Z,50.25
2018-09-18T02:00:44.637Z,50.54
2018-09-18T02:03:12.812Z,51.06
2018-09-18T02:05:40.999Z,50.98
2018-09-18T02:08:09.191Z,50.62
2018-09-18T02:10:37.371Z,50.88
2018-09-18T02:13:05.561Z,50.81
2018-09-18T02:15:33.778Z,51.05
2018-09-18T02:18:01.963Z,51.08
2018-09-18T02:20:30.152Z,51.15
2018-09-18T02:22:58.341Z,50.66
2018-09-18T02:25:26.515Z,50.88
2018-09-18T02:27:54.723Z,50.54
2018-09-18T02:30:22.907Z,51.17
2018-09-18T02:32:51.088Z,50.79
2018-09-18T02:35:19.260Z,50.81
2018-09-18T02:37:47.441Z,50.94
2018-09-18T02:40:15.606Z,50.90
2018-09-18T02:42:43.815Z,50.89
2018-09-18T02:45:11.986Z,50.81
2018-09-18T02:47:40.171Z,50.86
2018-09-18T02:50:08.373Z,51.00
2018-09-18T02:52:36.554Z,51.58
2018-09-18T02:55:04.788Z,51.30
2018-09-18T02:57:32.967Z,51.32
2018-09-18T03:00:01.154Z,51.49
2018-09-18T03:02:29.332Z,51.90
2018-09-18T03:04:57.516Z,51.08
2018-09-18T03:07:25.692Z,51.58
2018-09-18T03:09:53.903Z,51.01
2018-09-18T03:12:22.079Z,51.16
2018-09-18T03:14:50.268Z,50.66
2018-09-18T03:17:18.465Z,50.76
2018-09-18T03:19:46.651Z,50.58
2018-09-18T03:22:14.855Z,50.42
2018-09-18T03:24:43.059Z,50.24
2018-09-18T03:27:11.320Z,50.12
2018-09-18T03:29:39.475Z,50.62
2018-09-18T03:32:07.662Z,50.27
2018-09-18T03:34:35.832Z,50.32
2018-09-18T03:37:04.028Z,50.92
2018-09-18T03:39:32.214Z,50.67
2018-09-18T03:42:00.391Z,50.39
2018-09-18T03:44:28.577Z,50.84
2018-09-18T03:46:56.759Z,50.49
2018-09-18T03:49:24.940Z,50.13
2018-09-18T03:51:53.115Z,49.98
2018-09-18T03:54:21.302Z,50.20
2018-09-18T03:56:49.484Z,50.42
2018-09-18T03:59:17.667Z,50.23
2018-09-18T04:01:45.870Z,50.22
2018-09-18T04:04:14.074Z,50.13
2018-09-18T04:06:42.260Z,50.42
2018-09-18T04:09:11.719Z,50.79
2018-09-18T04:11:40.303Z,50.84
2018-09-18T04:14:08.484Z,50.98
2018-09-18T04:16:36.676Z,50.31
2018-09-18T04:19:04.970Z,50.92
2018-09-18T04:21:38.537Z,50.42
2018-09-18T04:24:06.723Z,50.98
2018-09-18T04:26:35.424Z,50.61
2018-09-18T04:29:03.770Z,50.89
2018-09-18T04:31:31.951Z,51.01
2018-09-18T04:34:00.148Z,50.42
2018-09-18T04:36:28.345Z,51.15
2018-09-18T04:38:56.522Z,51.37
2018-09-18T04:41:24.698Z,51.48
2018-09-18T04:43:52.942Z,50.88
2018-09-18T04:46:21.292Z,50.85
2018-09-18T04:48:49.471Z,51.22
2018-09-18T04:51:17.660Z,51.08
2018-09-18T04:53:45.833Z,51.16
2018-09-18T04:56:14.027Z,51.39
2018-09-18T04:58:42.217Z,51.44
2018-09-18T05:01:10.409Z,50.90
2018-09-18T05:03:38.659Z,51.13
2018-09-18T05:06:06.901Z,51.25
2018-09-18T05:08:35.178Z,50.93
2018-09-18T05:11:03.340Z,51.27
2018-09-18T05:13:31.620Z,51.00
2018-09-18T05:15:59.796Z,51.06
2018-09-18T05:18:28.000Z,51.05
2018-09-18T05:20:56.257Z,51.54
2018-09-18T05:23:24.428Z,51.72
2018-09-18T05:25:52.609Z,51.75
2018-09-18T05:28:20.799Z,50.98
2018-09-18T05:30:48.972Z,51.64
2018-09-18T05:33:17.149Z,50.94
2018-09-18T05:35:45.322Z,51.62
2018-09-18T05:38:13.508Z,51.73
2018-09-18T05:40:41.678Z,51.13
2018-09-18T05:43:09.846Z,51.25
2018-09-18T05:45:38.035Z,51.80
2018-09-18T05:48:06.256Z,51.32
2018-09-18T05:50:34.382Z,50.90
2018-09-18T05:53:02.590Z,50.39
2018-09-18T05:55:30.719Z,51.36
2018-09-18T05:57:58.903Z,51.31
2018-09-18T06:00:27.080Z,51.51
2018-09-18T06:02:55.279Z,51.79
2018-09-18T06:05:23.467Z,52.39
2018-09-18T06:07:51.631Z,52.07
2018-09-18T06:10:19.803Z,51.68
2018-09-18T06:12:47.991Z,51.64
2018-09-18T06:15:16.159Z,51.78
2018-09-18T06:17:44.342Z,52.22
2018-09-18T06:20:12.522Z,52.19
2018-09-18T06:22:40.704Z,52.43
2018-09-18T06:25:08.872Z,52.82
2018-09-18T06:27:37.067Z,52.70
2018-09-18T06:30:05.507Z,51.25
2018-09-18T06:32:33.722Z,52.03
2018-09-18T06:35:01.912Z,51.56
2018-09-18T06:37:30.078Z,52.59
2018-09-18T06:39:58.267Z,52.58
2018-09-18T06:42:26.476Z,51.01
2018-09-18T06:44:54.634Z,52.39
2018-09-18T06:47:22.802Z,52.07
2018-09-18T06:49:50.981Z,52.31
2018-09-18T06:52:19.160Z,50.11
2018-09-18T06:54:47.325Z,51.74
2018-09-18T06:57:15.503Z,50.59
2018-09-18T06:59:43.690Z,50.08
2018-09-18T07:02:11.870Z,50.30
2018-09-18T07:04:40.055Z,50.33
2018-09-18T07:07:08.234Z,49.11
2018-09-18T07:09:36.413Z,49.28
2018-09-18T07:12:04.597Z,50.48
2018-09-18T07:14:32.772Z,49.28
2018-09-18T07:17:01.377Z,49.52
2018-09-18T07:19:29.604Z,48.04
2018-09-18T07:21:57.783Z,47.70
2018-09-18T07:24:26.014Z,47.99
2018-09-18T07:26:54.193Z,47.36
2018-09-18T07:29:22.372Z,46.04
2018-09-18T07:31:50.525Z,46.25
2018-09-18T07:34:18.704Z,46.34
2018-09-18T07:36:46.876Z,46.54
2018-09-18T07:39:15.057Z,45.84
2018-09-18T07:41:43.224Z,45.04
2018-09-18T07:44:11.391Z,45.25
2018-09-18T07:46:39.579Z,46.12
2018-09-18T07:49:07.742Z,44.55
2018-09-18T07:51:36.251Z,44.60
2018-09-18T07:54:04.475Z,44.48
2018-09-18T07:56:32.855Z,45.38
2018-09-18T07:59:01.945Z,43.04
2018-09-18T08:01:30.847Z,43.09
2018-09-18T08:03:59.015Z,43.48
2018-09-18T08:06:27.250Z,43.78
2018-09-18T08:08:55.419Z,43.74
2018-09-18T08:11:23.600Z,43.89
2018-09-18T08:13:51.775Z,43.01
2018-09-18T08:16:19.961Z,42.73
2018-09-18T08:18:48.222Z,43.88
2018-09-18T08:21:16.331Z,41.89
2018-09-18T08:23:44.505Z,42.74
2018-09-18T08:26:12.700Z,42.64
2018-09-18T08:28:40.866Z,41.98
2018-09-18T08:31:09.052Z,41.98
2018-09-18T08:33:37.235Z,41.47
2018-09-18T08:36:05.450Z,40.80
2018-09-18T08:38:33.629Z,41.45
2018-09-18T08:41:01.831Z,41.08
2018-09-18T08:43:30.002Z,41.21
2018-09-18T08:45:58.200Z,39.83
2018-09-18T08:48:30.141Z,40.13
2018-09-18T08:50:59.353Z,40.46
2018-09-18T08:53:27.605Z,39.41
2018-09-18T08:55:55.811Z,38.63
2018-09-18T08:58:24.299Z,38.50
2018-09-18T09:00:52.767Z,38.91
2018-09-18T09:03:21.015Z,38.72
2018-09-18T09:05:49.204Z,38.70
2018-09-18T09:08:17.474Z,38.36
2018-09-18T09:10:45.584Z,37.59
2018-09-18T09:13:13.716Z,37.56
2018-09-18T09:15:41.891Z,37.23
2018-09-18T09:18:10.175Z,36.09
2018-09-18T09:20:38.250Z,36.05
2018-09-18T09:23:06.525Z,35.61
2018-09-18T09:25:34.645Z,35.22
2018-09-18T09:28:02.916Z,34.85
2018-09-18T09:30:31.044Z,35.62
2018-09-18T09:32:59.266Z,34.17
2018-09-18T09:35:27.456Z,33.84
2018-09-18T09:37:55.615Z,33.50
2018-09-18T09:40:24.073Z,34.16
2018-09-18T09:42:52.228Z,32.53
2018-09-18T09:45:20.420Z,32.86
2018-09-18T09:47:48.647Z,31.21
2018-09-18T09:50:16.824Z,31.75
2018-09-18T09:52:45.000Z,31.30
2018-09-18T09:55:13.400Z,30.96
2018-09-18T09:57:41.985Z,30.22
2018-09-18T10:00:14.318Z,29.99
2018-09-18T10:02:47.180Z,30.18
2018-09-18T10:05:16.055Z,30.58
2018-09-18T10:07:44.709Z,29.80
2018-09-18T10:10:12.875Z,29.80
2018-09-18T10:12:41.059Z,29.56
2018-09-18T10:15:09.758Z,28.92
2018-09-18T10:17:38.006Z,28.99
2018-09-18T10:20:06.408Z,28.89
2018-09-18T10:22:34.659Z,28.89
2018-09-18T10:25:02.863Z,28.00
2018-09-18T10:27:31.045Z,28.09
2018-09-18T10:29:59.283Z,27.63
2018-09-18T10:32:27.650Z,27.87
2018-09-18T10:34:55.815Z,27.24
2018-09-18T10:37:23.997Z,27.97
2018-09-18T10:39:52.151Z,28.32
2018-09-18T10:42:20.425Z,27.87
2018-09-18T10:44:48.640Z,27.82
2018-09-18T10:47:16.809Z,27.68
2018-09-18T10:49:44.995Z,27.01
2018-09-18T10:52:13.172Z,27.31
2018-09-18T10:54:41.367Z,26.73
2018-09-18T10:57:09.568Z,27.06
2018-09-18T10:59:37.739Z,26.61
2018-09-18T11:02:06.018Z,27.38
2018-09-18T11:04:34.155Z,27.16
2018-09-18T11:07:02.425Z,27.19
2018-09-18T11:09:30.542Z,27.29
2018-09-18T11:11:58.778Z,26.63
2018-09-18T11:14:26.905Z,27.39
2018-09-18T11:16:55.118Z,27.16
2018-09-18T11:19:23.244Z,26.63
2018-09-18T11:21:51.551Z,27.43
2018-09-18T11:24:19.692Z,28.02
2018-09-18T11:26:47.878Z,27.77
2018-09-18T11:29:16.081Z,28.12
2018-09-18T11:31:44.261Z,27.56
2018-09-18T11:34:12.448Z,28.47
2018-09-18T11:36:40.633Z,28.50
2018-09-18T11:39:08.819Z,28.69
2018-09-18T11:41:36.980Z,28.89
2018-09-18T11:44:05.141Z,28.23
2018-09-18T11:46:33.388Z,28.34
2018-09-18T11:49:01.520Z,30.04
2018-09-18T11:51:29.996Z,29.09
2018-09-18T11:53:58.143Z,28.61
2018-09-18T11:56:26.336Z,28.77
2018-09-18T11:58:54.564Z,28.10
2018-09-18T12:01:22.768Z,30.11
2018-09-18T12:03:50.946Z,28.35
2018-09-18T12:06:19.143Z,27.77
2018-09-18T12:08:47.454Z,27.69
2018-09-18T12:11:15.624Z,28.09
2018-09-18T12:13:43.757Z,27.60
2018-09-18T12:16:11.938Z,27.17
2018-09-18T12:18:40.120Z,27.43
2018-09-18T12:21:08.563Z,26.85
2018-09-18T12:23:36.755Z,27.11
2018-09-18T12:26:05.100Z,26.89
2018-09-18T12:28:33.467Z,26.71
2018-09-18T12:31:01.596Z,26.62
2018-09-18T12:33:29.800Z,27.21
2018-09-18T12:35:57.985Z,27.18
2018-09-18T12:38:26.179Z,27.33
2018-09-18T12:40:54.577Z,27.58
2018-09-18T12:43:22.867Z,26.78
2018-09-18T12:45:51.475Z,27.95
2018-09-18T12:48:19.747Z,26.47
2018-09-18T12:50:48.210Z,27.38
2018-09-18T12:53:20.512Z,26.07
2018-09-18T12:55:48.862Z,27.00
2018-09-18T12:58:17.974Z,27.72
2018-09-18T13:00:46.306Z,26.50
2018-09-18T13:03:14.524Z,26.88
2018-09-18T13:05:42.738Z,26.66
2018-09-18T13:08:11.086Z,26.13
2018-09-18T13:10:39.320Z,26.46
2018-09-18T13:13:08.115Z,27.18
2018-09-18T13:15:37.992Z,26.31
2018-09-18T13:18:06.350Z,26.04
2018-09-18T13:20:34.568Z,26.00
2018-09-18T13:23:02.823Z,25.59
2018-09-18T13:25:31.156Z,25.24
2018-09-18T13:27:59.659Z,25.33
2018-09-18T13:30:28.002Z,25.17
2018-09-18T13:32:56.070Z,25.44
2018-09-18T13:35:24.299Z,24.96
2018-09-18T13:37:52.550Z,25.08
2018-09-18T13:40:20.839Z,25.35
2018-09-18T13:42:49.632Z,25.54
2018-09-18T13:45:18.458Z,25.85
2018-09-18T13:47:48.108Z,26.15
2018-09-18T13:50:16.414Z,25.55
2018-09-18T13:52:44.664Z,26.04
2018-09-18T13:55:12.933Z,25.45
2018-09-18T13:57:41.222Z,25.75
2018-09-18T14:00:10.573Z,25.42
2018-09-18T14:02:38.881Z,24.70
2018-09-18T14:05:08.191Z,24.57
2018-09-18T14:07:36.410Z,25.14
2018-09-18T14:10:04.748Z,24.79
2018-09-18T14:12:32.932Z,24.86
2018-09-18T14:15:01.231Z,25.53
2018-09-18T14:17:29.298Z,24.62
2018-09-18T14:19:57.474Z,25.34
2018-09-18T14:22:25.672Z,25.66
2018-09-18T14:24:53.843Z,25.34
2018-09-18T14:27:22.072Z,25.65
2018-09-18T14:29:50.267Z,25.88
2018-09-18T14:32:18.509Z,25.23
2018-09-18T14:34:46.694Z,25.82
2018-09-18T14:37:14.975Z,25.54
2018-09-18T14:39:43.152Z,26.07
2018-09-18T14:42:11.324Z,26.33
2018-09-18T14:44:39.500Z,25.61
2018-09-18T14:47:07.675Z,25.81
2018-09-18T14:49:35.842Z,25.86
2018-09-18T14:52:04.042Z,26.47
2018-09-18T14:54:32.216Z,26.47
2018-09-18T14:57:00.438Z,26.61
2018-09-18T14:59:28.643Z,26.36
2018-09-18T15:01:56.819Z,26.04
2018-09-18T15:04:24.996Z,26.70
2018-09-18T15:06:53.580Z,26.84
2018-09-18T15:09:21.722Z,26.46
2018-09-18T15:11:49.887Z,26.53
2018-09-18T15:14:18.130Z,26.82
2018-09-18T15:16:46.253Z,26.64
2018-09-18T15:19:14.704Z,26.54
2018-09-18T15:21:42.990Z,26.72
2018-09-18T15:24:11.091Z,27.00
2018-09-18T15:26:39.934Z,26.83
2018-09-18T15:29:08.134Z,26.41
2018-09-18T15:31:36.331Z,27.16
2018-09-18T15:34:05.163Z,27.16
2018-09-18T15:36:33.820Z,27.20
2018-09-18T15:39:02.106Z,27.66
2018-09-18T15:41:30.289Z,27.45
2018-09-18T15:43:58.550Z,27.69
2018-09-18T15:46:26.747Z,27.33
2018-09-18T15:48:55.062Z,28.20
2018-09-18T15:51:23.345Z,27.71
2018-09-18T15:53:51.579Z,27.86
2018-09-18T15:56:19.766Z,28.21
2018-09-18T15:58:47.973Z,27.78
2018-09-18T16:01:16.224Z,28.50
2018-09-18T16:03:44.554Z,28.00
2018-09-18T16:06:12.786Z,28.32
2018-09-18T16:08:42.710Z,28.13
2018-09-18T16:11:11.794Z,28.88
2018-09-18T16:13:40.089Z,28.99
2018-09-18T16:16:10.267Z,28.50
2018-09-18T16:18:39.142Z,28.63
2018-09-18T16:21:07.461Z,28.98
2018-09-18T16:23:35.928Z,29.04
2018-09-18T16:26:04.163Z,29.76
2018-09-18T16:28:32.448Z,28.91
2018-09-18T16:31:00.747Z,29.84
2018-09-18T16:33:28.939Z,29.26
2018-09-18T16:35:58.227Z,29.42
2018-09-18T16:38:44.023Z,29.73
2018-09-18T16:41:12.965Z,30.08
2018-09-18T16:43:41.239Z,30.43
2018-09-18T16:46:09.395Z,30.10
2018-09-18T16:48:37.602Z,30.31
2018-09-18T16:51:05.778Z,29.95
2018-09-18T16:53:33.990Z,29.63
2018-09-18T16:56:02.174Z,30.23
2018-09-18T16:58:30.378Z,30.06
2018-09-18T17:00:58.557Z,29.75
2018-09-18T17:03:26.719Z,30.13
2018-09-18T17:05:54.944Z,30.03
2018-09-18T17:08:23.127Z,29.99
2018-09-18T17:10:51.307Z,30.58
2018-09-18T17:13:20.502Z,30.52
2018-09-18T17:15:51.084Z,30.13
2018-09-18T17:18:19.329Z,30.46
2018-09-18T17:20:49.512Z,31.25
2018-09-18T17:23:17.825Z,31.50
2018-09-18T17:25:46.832Z,31.93
2018-09-18T17:28:15.102Z,31.08
2018-09-18T17:30:43.337Z,31.67
2018-09-18T17:33:11.536Z,32.18
2018-09-18T17:35:43.165Z,32.81
2018-09-18T17:38:12.461Z,32.35
2018-09-18T17:40:40.723Z,32.22
2018-09-18T17:43:08.959Z,32.57
2018-09-18T17:45:37.160Z,32.63
2018-09-18T17:48:05.385Z,32.68
2018-09-18T17:50:33.557Z,32.35
2018-09-18T17:53:01.751Z,33.17
2018-09-18T17:55:30.597Z,32.77
2018-09-18T17:57:59.503Z,32.91
2018-09-18T18:00:27.748Z,32.75
2018-09-18T18:02:55.949Z,33.21
2018-09-18T18:05:24.365Z,33.25
2018-09-18T18:07:52.562Z,33.25
2018-09-18T18:10:21.187Z,34.32
2018-09-18T18:12:49.384Z,34.70
2018-09-18T18:15:17.626Z,34.45
2018-09-18T18:17:46.115Z,35.20
2018-09-18T18:20:15.044Z,34.96
2018-09-18T18:22:44.404Z,35.49
2018-09-18T18:25:13.426Z,35.86
2018-09-18T18:27:41.698Z,36.21
2018-09-18T18:30:10.567Z,36.22
2018-09-18T18:32:38.864Z,35.64
2018-09-18T18:35:07.170Z,36.03
2018-09-18T18:37:35.682Z,36.41
2018-09-18T18:40:05.450Z,36.22
2018-09-18T18:42:33.876Z,36.05
2018-09-18T18:45:02.210Z,36.36
2018-09-18T18:47:30.504Z,36.74
2018-09-18T18:49:59.338Z,37.37
2018-09-18T18:52:27.731Z,37.46
2018-09-18T18:54:56.097Z,37.00
2018-09-18T18:57:24.425Z,37.00
2018-09-18T18:59:52.860Z,37.11
2018-09-18T19:02:22.440Z,37.24
2018-09-18T19:04:50.619Z,37.65
2018-09-18T19:07:18.795Z,37.78
2018-09-18T19:09:46.976Z,38.00
2018-09-18T19:12:15.190Z,37.73
2018-09-18T19:14:43.339Z,38.57
2018-09-18T19:17:11.557Z,38.76
2018-09-18T19:19:39.753Z,39.11
2018-09-18T19:22:07.950Z,38.90
2018-09-18T19:24:36.153Z,39.17
2018-09-18T19:27:04.363Z,39.09
2018-09-18T19:29:32.551Z,39.98
2018-09-18T19:32:00.734Z,39.18
2018-09-18T19:34:28.946Z,39.60
2018-09-18T19:36:57.180Z,40.38
2018-09-18T19:39:26.303Z,40.28
2018-09-18T19:41:54.538Z,40.34
2018-09-18T19:44:22.844Z,40.35
2018-09-18T19:46:51.077Z,40.00
2018-09-18T19:49:19.338Z,40.07
2018-09-18T19:51:47.588Z,40.71
2018-09-18T19:54:15.862Z,40.14
2018-09-18T19:56:45.088Z,40.39
2018-09-18T19:59:14.321Z,40.05
2018-09-18T20:01:42.649Z,40.61
2018-09-18T20:04:10.948Z,40.98
2018-09-18T20:06:39.229Z,40.47
2018-09-18T20:09:09.303Z,40.76
2018-09-18T20:11:37.733Z,41.62
2018-09-18T20:14:05.926Z,41.03
2018-09-18T20:16:34.895Z,41.64
2018-09-18T20:19:03.164Z,41.69
2018-09-18T20:21:31.322Z,41.79
2018-09-18T20:23:59.514Z,41.41
2018-09-18T20:26:27.704Z,41.97
2018-09-18T20:28:55.979Z,42.52
2018-09-18T20:31:24.074Z,42.56
2018-09-18T20:33:52.256Z,42.87
2018-09-18T20:39:13.203Z,43.67
2018-09-18T20:41:41.461Z,44.53
2018-09-18T20:47:00.283Z,44.68
2018-09-18T20:49:28.802Z,45.14
2018-09-18T20:51:56.977Z,45.79
2018-09-18T20:54:25.453Z,45.67
2018-09-18T20:56:53.650Z,46.17
2018-09-18T20:59:21.865Z,46.46
2018-09-18T21:01:50.045Z,46.73
2018-09-18T21:04:18.253Z,47.18
2018-09-18T21:06:46.407Z,47.00
2018-09-18T21:09:14.585Z,47.72
2018-09-18T21:11:42.755Z,47.89
2018-09-18T21:14:10.964Z,47.42
2018-09-18T21:16:39.134Z,48.14
2018-09-18T21:19:07.465Z,48.03
2018-09-18T21:21:35.638Z,48.06
2018-09-18T21:24:03.828Z,48.06
2018-09-18T21:26:32.022Z,48.45
2018-09-18T21:29:00.202Z,48.97
2018-09-18T21:31:28.375Z,49.26
2018-09-18T21:33:56.551Z,49.02
2018-09-18T21:36:24.744Z,48.89
2018-09-18T21:38:52.914Z,48.85
2018-09-18T21:41:21.081Z,48.81
2018-09-18T21:43:49.252Z,48.84
2018-09-18T21:46:17.448Z,49.13
2018-09-18T21:48:45.636Z,49.55
2018-09-18T21:51:13.868Z,49.42
2018-09-18T21:53:42.051Z,49.66
2018-09-18T21:56:10.228Z,49.70
2018-09-18T21:58:38.439Z,50.38
2018-09-18T22:01:07.211Z,50.54
2018-09-18T22:03:35.668Z,51.20
2018-09-18T22:06:04.137Z,51.29
2018-09-18T22:08:32.327Z,51.68
2018-09-18T22:11:00.512Z,51.64
2018-09-18T22:13:28.714Z,51.81
2018-09-18T22:15:56.881Z,52.07
2018-09-18T22:18:25.071Z,51.96
2018-09-18T22:20:53.238Z,52.46
2018-09-18T22:23:21.410Z,52.83
2018-09-18T22:25:49.598Z,52.73
2018-09-18T22:28:17.780Z,52.85
2018-09-18T22:30:45.967Z,52.79
2018-09-18T22:33:14.163Z,52.90
2018-09-18T22:35:42.341Z,53.50
2018-09-18T22:38:10.550Z,52.99
2018-09-18T22:40:38.770Z,53.02
2018-09-18T22:43:07.071Z,53.50
2018-09-18T22:45:35.134Z,53.62
2018-09-18T22:48:03.322Z,53.52
2018-09-18T22:50:31.504Z,53.64
2018-09-18T22:52:59.707Z,54.06
2018-09-18T22:55:27.904Z,53.97
2018-09-18T22:57:56.127Z,53.68
2018-09-18T23:00:24.562Z,53.77
2018-09-18T23:02:52.762Z,54.17
2018-09-18T23:05:20.944Z,54.68
2018-09-18T23:07:49.146Z,54.12
2018-09-18T23:10:17.337Z,53.80
2018-09-18T23:12:45.529Z,53.79
2018-09-18T23:15:13.730Z,53.83
2018-09-18T23:17:41.919Z,53.52
2018-09-18T23:20:10.165Z,53.81
2018-09-18T23:22:38.282Z,53.57
2018-09-18T23:25:06.490Z,52.97
2018-09-18T23:27:34.670Z,52.83
2018-09-18T23:30:02.859Z,52.94
2018-09-18T23:32:31.042Z,53.01
2018-09-18T23:34:59.293Z,53.11
2018-09-18T23:37:27.487Z,53.18
2018-09-18T23:39:55.677Z,52.98
2018-09-18T23:42:23.913Z,52.88
2018-09-18T23:44:52.044Z,53.09
2018-09-18T23:47:20.226Z,53.26
2018-09-18T23:49:48.435Z,53.36
2018-09-18T23:52:16.614Z,53.84
2018-09-18T23:54:44.800Z,53.59
2018-09-18T23:57:12.972Z,53.57
2018-09-18T23:59:41.163Z,53.77
